sensor_id;sensor_type;location;lat;lon;timestamp;temperature;humidity
77305;DHT22;66364;52.622;7.746;2023-02-28T00:01:37;2.80;99.90
77305;DHT22;66364;52.622;7.746;2023-02-28T00:03:38;2.70;99.90
77305;DHT22;66364;52.622;7.746;2023-02-28T00:05:39;3.10;99.90
77305;DHT22;66364;52.622;7.746;2023-02-28T00:07:40;3.00;99.90
77305;DHT22;66364;52.622;7.746;2023-02-28T00:09:41;3.10;99.90
77305;DHT22;66364;52.622;7.746;2023-02-28T00:11:42;3.00;99.90
77305;DHT22;66364;52.622;7.746;2023-02-28T00:13:46;2.70;99.90
77305;DHT22;66364;52.622;7.746;2023-02-28T00:15:47;3.00;99.90
77305;DHT22;66364;52.622;7.746;2023-02-28T00:17:47;3.20;99.90
77305;DHT22;66364;52.622;7.746;2023-02-28T00:19:48;3.10;99.90
77305;DHT22;66364;52.622;7.746;2023-02-28T00:21:49;3.30;99.90
77305;DHT22;66364;52.622;7.746;2023-02-28T00:23:49;3.00;99.90
77305;DHT22;66364;52.622;7.746;2023-02-28T00:25:51;3.10;99.90
77305;DHT22;66364;52.622;7.746;2023-02-28T00:27:54;3.40;99.90
77305;DHT22;66364;52.622;7.746;2023-02-28T00:29:55;3.40;99.90
77305;DHT22;66364;52.622;7.746;2023-02-28T00:31:56;3.00;99.90
77305;DHT22;66364;52.622;7.746;2023-02-28T00:33:57;3.20;99.90
77305;DHT22;66364;52.622;7.746;2023-02-28T00:36:02;3.10;99.90
77305;DHT22;66364;52.622;7.746;2023-02-28T00:38:03;3.20;99.90
77305;DHT22;66364;52.622;7.746;2023-02-28T00:40:11;3.10;99.90
77305;DHT22;66364;52.622;7.746;2023-02-28T00:42:12;2.90;99.90
77305;DHT22;66364;52.622;7.746;2023-02-28T00:44:13;2.90;99.90
77305;DHT22;66364;52.622;7.746;2023-02-28T00:46:13;3.10;99.90
77305;DHT22;66364;52.622;7.746;2023-02-28T00:48:14;3.30;99.90
77305;DHT22;66364;52.622;7.746;2023-02-28T00:50:17;3.00;99.90
77305;DHT22;66364;52.622;7.746;2023-02-28T00:52:18;2.90;99.90
77305;DHT22;66364;52.622;7.746;2023-02-28T00:54:25;3.10;99.90
77305;DHT22;66364;52.622;7.746;2023-02-28T00:56:26;2.90;99.90
77305;DHT22;66364;52.622;7.746;2023-02-28T00:58:26;2.90;99.90
77305;DHT22;66364;52.622;7.746;2023-02-28T01:00:28;3.00;99.90
77305;DHT22;66364;52.622;7.746;2023-02-28T01:02:29;3.10;99.90
77305;DHT22;66364;52.622;7.746;2023-02-28T01:04:35;2.70;99.90
77305;DHT22;66364;52.622;7.746;2023-02-28T01:06:36;3.10;99.90
77305;DHT22;66364;52.622;7.746;2023-02-28T01:08:37;2.70;99.90
77305;DHT22;66364;52.622;7.746;2023-02-28T01:10:37;2.80;99.90
77305;DHT22;66364;52.622;7.746;2023-02-28T01:12:38;2.60;99.90
77305;DHT22;66364;52.622;7.746;2023-02-28T01:14:48;3.10;99.90
77305;DHT22;66364;52.622;7.746;2023-02-28T01:16:48;3.30;99.90
77305;DHT22;66364;52.622;7.746;2023-02-28T01:18:49;3.00;99.90
77305;DHT22;66364;52.622;7.746;2023-02-28T01:20:50;3.20;99.90
77305;DHT22;66364;52.622;7.746;2023-02-28T01:22:50;3.20;99.90
77305;DHT22;66364;52.622;7.746;2023-02-28T01:24:51;3.20;99.90
77305;DHT22;66364;52.622;7.746;2023-02-28T01:26:52;3.20;99.90
77305;DHT22;66364;52.622;7.746;2023-02-28T01:29:24;3.20;99.90
77305;DHT22;66364;52.622;7.746;2023-02-28T01:31:27;3.10;99.90
77305;DHT22;66364;52.622;7.746;2023-02-28T01:33:36;3.10;99.90
77305;DHT22;66364;52.622;7.746;2023-02-28T01:35:36;2.90;99.90
77305;DHT22;66364;52.622;7.746;2023-02-28T01:37:37;2.80;99.90
77305;DHT22;66364;52.622;7.746;2023-02-28T01:39:38;3.10;99.90
77305;DHT22;66364;52.622;7.746;2023-02-28T01:41:39;3.20;99.90
77305;DHT22;66364;52.622;7.746;2023-02-28T01:45:57;3.20;99.90
77305;DHT22;66364;52.622;7.746;2023-02-28T01:48:04;2.70;99.90
77305;DHT22;66364;52.622;7.746;2023-02-28T01:50:09;3.10;99.90
77305;DHT22;66364;52.622;7.746;2023-02-28T01:52:11;3.00;99.90
77305;DHT22;66364;52.622;7.746;2023-02-28T01:54:16;3.10;99.90
77305;DHT22;66364;52.622;7.746;2023-02-28T01:56:27;3.10;99.90
77305;DHT22;66364;52.622;7.746;2023-02-28T01:58:28;3.10;99.90
77305;DHT22;66364;52.622;7.746;2023-02-28T02:00:29;3.20;99.90
77305;DHT22;66364;52.622;7.746;2023-02-28T02:02:30;3.00;99.90
77305;DHT22;66364;52.622;7.746;2023-02-28T02:04:41;3.00;99.90
77305;DHT22;66364;52.622;7.746;2023-02-28T02:06:44;3.10;99.90
77305;DHT22;66364;52.622;7.746;2023-02-28T02:08:45;2.90;99.90
77305;DHT22;66364;52.622;7.746;2023-02-28T02:10:48;3.20;99.90
77305;DHT22;66364;52.622;7.746;2023-02-28T02:12:56;3.00;99.90
77305;DHT22;66364;52.622;7.746;2023-02-28T02:17:38;2.90;99.90
77305;DHT22;66364;52.622;7.746;2023-02-28T02:27:16;2.80;99.90
77305;DHT22;66364;52.622;7.746;2023-02-28T02:37:25;2.80;99.90
77305;DHT22;66364;52.622;7.746;2023-02-28T02:39:09;2.90;99.90
77305;DHT22;66364;52.622;7.746;2023-02-28T02:48:45;2.30;99.90
77305;DHT22;66364;52.622;7.746;2023-02-28T02:50:57;2.60;99.90
77305;DHT22;66364;52.622;7.746;2023-02-28T02:53:01;2.70;99.90
77305;DHT22;66364;52.622;7.746;2023-02-28T02:55:04;2.40;99.90
77305;DHT22;66364;52.622;7.746;2023-02-28T02:57:08;2.70;99.90
77305;DHT22;66364;52.622;7.746;2023-02-28T02:59:12;2.90;99.90
77305;DHT22;66364;52.622;7.746;2023-02-28T03:01:17;2.70;99.90
77305;DHT22;66364;52.622;7.746;2023-02-28T03:05:48;2.80;99.90
77305;DHT22;66364;52.622;7.746;2023-02-28T03:07:56;2.90;99.90
77305;DHT22;66364;52.622;7.746;2023-02-28T03:10:25;2.90;99.90
77305;DHT22;66364;52.622;7.746;2023-02-28T03:19:19;2.70;99.90
77305;DHT22;66364;52.622;7.746;2023-02-28T03:21:24;2.70;99.90
77305;DHT22;66364;52.622;7.746;2023-02-28T03:23:34;2.90;99.90
77305;DHT22;66364;52.622;7.746;2023-02-28T03:32:39;2.60;99.90
77305;DHT22;66364;52.622;7.746;2023-02-28T03:34:45;2.80;99.90
77305;DHT22;66364;52.622;7.746;2023-02-28T03:36:49;2.50;99.90
77305;DHT22;66364;52.622;7.746;2023-02-28T03:38:58;2.60;99.90
77305;DHT22;66364;52.622;7.746;2023-02-28T03:41:06;2.40;99.90
77305;DHT22;66364;52.622;7.746;2023-02-28T03:45:37;2.60;99.90
77305;DHT22;66364;52.622;7.746;2023-02-28T03:47:42;2.50;99.90
77305;DHT22;66364;52.622;7.746;2023-02-28T03:52:07;3.00;99.90
77305;DHT22;66364;52.622;7.746;2023-02-28T03:54:27;2.80;99.90
77305;DHT22;66364;52.622;7.746;2023-02-28T03:56:34;2.80;99.90
77305;DHT22;66364;52.622;7.746;2023-02-28T04:01:04;2.90;99.90
77305;DHT22;66364;52.622;7.746;2023-02-28T04:03:25;2.60;99.90
77305;DHT22;66364;52.622;7.746;2023-02-28T04:05:26;2.60;99.90
77305;DHT22;66364;52.622;7.746;2023-02-28T04:07:41;2.60;99.90
77305;DHT22;66364;52.622;7.746;2023-02-28T04:09:44;2.40;99.90
77305;DHT22;66364;52.622;7.746;2023-02-28T04:11:49;2.60;99.90
77305;DHT22;66364;52.622;7.746;2023-02-28T04:13:49;2.70;99.90
77305;DHT22;66364;52.622;7.746;2023-02-28T04:15:50;2.50;99.90
77305;DHT22;66364;52.622;7.746;2023-02-28T04:17:50;2.50;99.90
77305;DHT22;66364;52.622;7.746;2023-02-28T04:19:51;2.50;99.90
77305;DHT22;66364;52.622;7.746;2023-02-28T04:21:53;2.50;99.90
77305;DHT22;66364;52.622;7.746;2023-02-28T04:23:54;2.40;99.90
77305;DHT22;66364;52.622;7.746;2023-02-28T04:26:15;2.30;99.90
77305;DHT22;66364;52.622;7.746;2023-02-28T04:28:15;2.00;99.90
77305;DHT22;66364;52.622;7.746;2023-02-28T04:30:16;2.30;99.90
77305;DHT22;66364;52.622;7.746;2023-02-28T04:32:24;2.40;99.90
77305;DHT22;66364;52.622;7.746;2023-02-28T04:34:27;2.30;99.90
77305;DHT22;66364;52.622;7.746;2023-02-28T04:36:34;2.30;99.90
77305;DHT22;66364;52.622;7.746;2023-02-28T04:38:36;2.40;99.90
77305;DHT22;66364;52.622;7.746;2023-02-28T04:40:37;2.30;99.90
77305;DHT22;66364;52.622;7.746;2023-02-28T04:42:38;2.50;99.90
77305;DHT22;66364;52.622;7.746;2023-02-28T04:44:38;2.30;99.90
77305;DHT22;66364;52.622;7.746;2023-02-28T04:46:40;2.50;99.90
77305;DHT22;66364;52.622;7.746;2023-02-28T04:48:43;2.00;99.90
77305;DHT22;66364;52.622;7.746;2023-02-28T04:50:43;2.20;99.90
77305;DHT22;66364;52.622;7.746;2023-02-28T04:52:44;2.40;99.90
77305;DHT22;66364;52.622;7.746;2023-02-28T04:54:47;2.30;99.90
77305;DHT22;66364;52.622;7.746;2023-02-28T04:56:47;2.30;99.90
77305;DHT22;66364;52.622;7.746;2023-02-28T04:58:48;2.40;99.90
77305;DHT22;66364;52.622;7.746;2023-02-28T05:01:06;2.50;99.90
77305;DHT22;66364;52.622;7.746;2023-02-28T05:03:14;2.60;99.90
77305;DHT22;66364;52.622;7.746;2023-02-28T05:05:14;2.60;99.90
77305;DHT22;66364;52.622;7.746;2023-02-28T05:07:15;2.40;99.90
77305;DHT22;66364;52.622;7.746;2023-02-28T05:09:16;2.30;99.90
77305;DHT22;66364;52.622;7.746;2023-02-28T05:13:23;2.30;99.90
77305;DHT22;66364;52.622;7.746;2023-02-28T05:15:24;2.50;99.90
77305;DHT22;66364;52.622;7.746;2023-02-28T05:17:25;2.40;99.90
77305;DHT22;66364;52.622;7.746;2023-02-28T05:19:32;2.30;99.90
77305;DHT22;66364;52.622;7.746;2023-02-28T05:21:36;2.40;99.90
77305;DHT22;66364;52.622;7.746;2023-02-28T05:23:57;2.10;99.90
77305;DHT22;66364;52.622;7.746;2023-02-28T05:26:13;2.30;99.90
77305;DHT22;66364;52.622;7.746;2023-02-28T05:28:13;2.10;99.90
77305;DHT22;66364;52.622;7.746;2023-02-28T05:30:19;2.10;99.90
77305;DHT22;66364;52.622;7.746;2023-02-28T05:32:20;2.10;99.90
77305;DHT22;66364;52.622;7.746;2023-02-28T05:34:21;2.10;99.90
77305;DHT22;66364;52.622;7.746;2023-02-28T05:36:21;2.30;99.90
77305;DHT22;66364;52.622;7.746;2023-02-28T05:38:22;2.00;99.90
77305;DHT22;66364;52.622;7.746;2023-02-28T05:40:23;2.20;99.90
77305;DHT22;66364;52.622;7.746;2023-02-28T05:42:24;2.30;99.90
77305;DHT22;66364;52.622;7.746;2023-02-28T05:44:24;2.20;99.90
77305;DHT22;66364;52.622;7.746;2023-02-28T05:46:25;2.20;99.90
77305;DHT22;66364;52.622;7.746;2023-02-28T05:48:26;2.20;99.90
77305;DHT22;66364;52.622;7.746;2023-02-28T05:50:27;2.40;99.90
77305;DHT22;66364;52.622;7.746;2023-02-28T05:52:28;2.20;99.90
77305;DHT22;66364;52.622;7.746;2023-02-28T05:54:35;2.10;99.90
77305;DHT22;66364;52.622;7.746;2023-02-28T05:56:36;2.30;99.90
77305;DHT22;66364;52.622;7.746;2023-02-28T05:58:52;2.10;99.90
77305;DHT22;66364;52.622;7.746;2023-02-28T06:00:53;2.30;99.90
77305;DHT22;66364;52.622;7.746;2023-02-28T06:02:53;2.60;99.90
77305;DHT22;66364;52.622;7.746;2023-02-28T06:04:54;2.20;99.90
77305;DHT22;66364;52.622;7.746;2023-02-28T06:06:55;2.30;99.90
77305;DHT22;66364;52.622;7.746;2023-02-28T06:08:56;2.00;99.90
77305;DHT22;66364;52.622;7.746;2023-02-28T06:10:57;2.10;99.90
77305;DHT22;66364;52.622;7.746;2023-02-28T06:13:00;2.30;99.90
77305;DHT22;66364;52.622;7.746;2023-02-28T06:15:02;2.30;99.90
77305;DHT22;66364;52.622;7.746;2023-02-28T06:17:03;2.00;99.90
77305;DHT22;66364;52.622;7.746;2023-02-28T06:19:10;1.90;99.90
77305;DHT22;66364;52.622;7.746;2023-02-28T06:21:12;1.90;99.90
77305;DHT22;66364;52.622;7.746;2023-02-28T06:23:12;2.20;99.90
77305;DHT22;66364;52.622;7.746;2023-02-28T06:25:13;2.00;99.90
77305;DHT22;66364;52.622;7.746;2023-02-28T06:27:14;1.90;99.90
77305;DHT22;66364;52.622;7.746;2023-02-28T06:29:46;2.10;99.90
77305;DHT22;66364;52.622;7.746;2023-02-28T06:31:47;1.90;99.90
77305;DHT22;66364;52.622;7.746;2023-02-28T06:33:48;2.10;99.90
77305;DHT22;66364;52.622;7.746;2023-02-28T06:35:52;2.20;99.90
77305;DHT22;66364;52.622;7.746;2023-02-28T06:37:53;2.20;99.90
77305;DHT22;66364;52.622;7.746;2023-02-28T06:40:00;2.20;99.90
77305;DHT22;66364;52.622;7.746;2023-02-28T06:42:00;2.10;99.90
77305;DHT22;66364;52.622;7.746;2023-02-28T06:44:01;2.00;99.90
77305;DHT22;66364;52.622;7.746;2023-02-28T06:46:05;2.10;99.90
77305;DHT22;66364;52.622;7.746;2023-02-28T06:48:07;2.00;99.90
77305;DHT22;66364;52.622;7.746;2023-02-28T06:50:11;2.10;99.90
77305;DHT22;66364;52.622;7.746;2023-02-28T06:52:37;2.10;99.90
77305;DHT22;66364;52.622;7.746;2023-02-28T06:54:48;2.10;99.90
77305;DHT22;66364;52.622;7.746;2023-02-28T06:56:48;2.00;99.90
77305;DHT22;66364;52.622;7.746;2023-02-28T06:58:50;1.90;99.90
77305;DHT22;66364;52.622;7.746;2023-02-28T07:00:52;1.90;99.90
77305;DHT22;66364;52.622;7.746;2023-02-28T07:02:53;1.80;99.90
77305;DHT22;66364;52.622;7.746;2023-02-28T07:04:53;2.10;99.90
77305;DHT22;66364;52.622;7.746;2023-02-28T07:06:55;2.10;99.90
77305;DHT22;66364;52.622;7.746;2023-02-28T07:08:55;2.10;99.90
77305;DHT22;66364;52.622;7.746;2023-02-28T07:10:56;2.10;99.90
77305;DHT22;66364;52.622;7.746;2023-02-28T07:12:57;2.10;99.90
77305;DHT22;66364;52.622;7.746;2023-02-28T07:14:58;2.40;99.90
77305;DHT22;66364;52.622;7.746;2023-02-28T07:16:59;2.10;99.90
77305;DHT22;66364;52.622;7.746;2023-02-28T07:18:59;2.10;99.90
77305;DHT22;66364;52.622;7.746;2023-02-28T07:21:05;2.30;99.90
77305;DHT22;66364;52.622;7.746;2023-02-28T07:23:06;2.20;99.90
77305;DHT22;66364;52.622;7.746;2023-02-28T07:25:08;2.40;99.90
77305;DHT22;66364;52.622;7.746;2023-02-28T07:27:08;2.40;99.90
77305;DHT22;66364;52.622;7.746;2023-02-28T07:29:15;2.50;99.90
77305;DHT22;66364;52.622;7.746;2023-02-28T07:31:17;2.20;99.90
77305;DHT22;66364;52.622;7.746;2023-02-28T07:33:17;2.60;99.90
77305;DHT22;66364;52.622;7.746;2023-02-28T07:35:19;2.80;99.90
77305;DHT22;66364;52.622;7.746;2023-02-28T07:37:20;2.70;99.90
77305;DHT22;66364;52.622;7.746;2023-02-28T07:39:21;2.70;99.90
77305;DHT22;66364;52.622;7.746;2023-02-28T07:41:24;2.70;99.90
77305;DHT22;66364;52.622;7.746;2023-02-28T07:43:24;2.80;99.90
77305;DHT22;66364;52.622;7.746;2023-02-28T07:45:25;2.90;99.90
77305;DHT22;66364;52.622;7.746;2023-02-28T07:47:26;3.00;99.90
77305;DHT22;66364;52.622;7.746;2023-02-28T07:49:26;3.20;99.90
77305;DHT22;66364;52.622;7.746;2023-02-28T07:51:27;3.40;99.90
77305;DHT22;66364;52.622;7.746;2023-02-28T07:53:28;3.20;99.90
77305;DHT22;66364;52.622;7.746;2023-02-28T07:55:29;3.30;99.90
77305;DHT22;66364;52.622;7.746;2023-02-28T07:57:30;3.60;99.90
77305;DHT22;66364;52.622;7.746;2023-02-28T07:59:30;3.70;98.50
77305;DHT22;66364;52.622;7.746;2023-02-28T08:01:31;3.70;93.10
77305;DHT22;66364;52.622;7.746;2023-02-28T08:03:32;3.60;91.90
77305;DHT22;66364;52.622;7.746;2023-02-28T08:05:32;4.00;92.10
77305;DHT22;66364;52.622;7.746;2023-02-28T08:07:33;3.80;84.40
77305;DHT22;66364;52.622;7.746;2023-02-28T08:09:35;3.90;83.50
77305;DHT22;66364;52.622;7.746;2023-02-28T08:11:36;4.10;81.60
77305;DHT22;66364;52.622;7.746;2023-02-28T08:13:36;4.50;74.00
77305;DHT22;66364;52.622;7.746;2023-02-28T08:15:37;4.20;69.20
77305;DHT22;66364;52.622;7.746;2023-02-28T08:17:38;4.10;70.40
77305;DHT22;66364;52.622;7.746;2023-02-28T08:19:38;4.40;70.90
77305;DHT22;66364;52.622;7.746;2023-02-28T08:21:39;4.40;64.10
77305;DHT22;66364;52.622;7.746;2023-02-28T08:23:40;5.00;56.40
77305;DHT22;66364;52.622;7.746;2023-02-28T08:25:40;5.10;60.50
77305;DHT22;66364;52.622;7.746;2023-02-28T08:27:41;5.20;49.90
77305;DHT22;66364;52.622;7.746;2023-02-28T08:29:42;5.40;42.50
77305;DHT22;66364;52.622;7.746;2023-02-28T08:31:42;5.40;42.20
77305;DHT22;66364;52.622;7.746;2023-02-28T08:33:43;5.70;40.10
77305;DHT22;66364;52.622;7.746;2023-02-28T08:35:44;6.30;35.30
77305;DHT22;66364;52.622;7.746;2023-02-28T08:37:47;6.30;31.10
77305;DHT22;66364;52.622;7.746;2023-02-28T08:39:48;6.20;34.10
77305;DHT22;66364;52.622;7.746;2023-02-28T08:41:49;6.20;34.50
77305;DHT22;66364;52.622;7.746;2023-02-28T08:43:49;6.80;30.00
77305;DHT22;66364;52.622;7.746;2023-02-28T08:45:54;7.10;33.00
77305;DHT22;66364;52.622;7.746;2023-02-28T08:47:55;7.30;24.00
77305;DHT22;66364;52.622;7.746;2023-02-28T08:49:56;7.90;24.20
77305;DHT22;66364;52.622;7.746;2023-02-28T08:51:56;8.20;23.30
77305;DHT22;66364;52.622;7.746;2023-02-28T08:54:00;7.80;21.20
77305;DHT22;66364;52.622;7.746;2023-02-28T08:56:12;8.20;22.90
77305;DHT22;66364;52.622;7.746;2023-02-28T08:58:13;7.90;19.10
77305;DHT22;66364;52.622;7.746;2023-02-28T09:00:14;7.60;20.90
77305;DHT22;66364;52.622;7.746;2023-02-28T09:02:15;8.00;19.80
77305;DHT22;66364;52.622;7.746;2023-02-28T09:04:16;8.50;16.40
77305;DHT22;66364;52.622;7.746;2023-02-28T09:06:19;8.50;17.50
77305;DHT22;66364;52.622;7.746;2023-02-28T09:08:20;8.90;15.90
77305;DHT22;66364;52.622;7.746;2023-02-28T09:10:21;9.30;16.50
77305;DHT22;66364;52.622;7.746;2023-02-28T09:12:24;9.50;14.80
77305;DHT22;66364;52.622;7.746;2023-02-28T09:14:24;9.10;15.50
77305;DHT22;66364;52.622;7.746;2023-02-28T09:16:26;9.60;14.40
77305;DHT22;66364;52.622;7.746;2023-02-28T09:18:26;9.60;14.20
77305;DHT22;66364;52.622;7.746;2023-02-28T09:20:27;10.00;14.90
77305;DHT22;66364;52.622;7.746;2023-02-28T09:22:28;10.30;13.50
77305;DHT22;66364;52.622;7.746;2023-02-28T09:24:28;10.30;11.70
77305;DHT22;66364;52.622;7.746;2023-02-28T09:26:29;10.20;11.90
77305;DHT22;66364;52.622;7.746;2023-02-28T09:28:30;10.50;11.00
77305;DHT22;66364;52.622;7.746;2023-02-28T09:30:30;10.40;11.10
77305;DHT22;66364;52.622;7.746;2023-02-28T09:32:31;10.40;10.70
77305;DHT22;66364;52.622;7.746;2023-02-28T09:34:33;10.80;10.90
77305;DHT22;66364;52.622;7.746;2023-02-28T09:36:33;10.90;10.90
77305;DHT22;66364;52.622;7.746;2023-02-28T09:38:34;11.10;9.50
77305;DHT22;66364;52.622;7.746;2023-02-28T09:40:38;11.30;8.60
77305;DHT22;66364;52.622;7.746;2023-02-28T09:42:39;10.70;8.20
77305;DHT22;66364;52.622;7.746;2023-02-28T09:44:55;10.40;9.40
77305;DHT22;66364;52.622;7.746;2023-02-28T09:47:32;10.40;10.70
77305;DHT22;66364;52.622;7.746;2023-02-28T09:49:42;10.90;11.30
77305;DHT22;66364;52.622;7.746;2023-02-28T09:52:00;11.20;11.40
77305;DHT22;66364;52.622;7.746;2023-02-28T09:54:01;10.90;10.20
77305;DHT22;66364;52.622;7.746;2023-02-28T09:56:06;11.00;11.40
77305;DHT22;66364;52.622;7.746;2023-02-28T09:58:53;10.70;11.70
77305;DHT22;66364;52.622;7.746;2023-02-28T10:00:33;11.10;11.40
77305;DHT22;66364;52.622;7.746;2023-02-28T10:04:59;11.30;12.60
77305;DHT22;66364;52.622;7.746;2023-02-28T10:07:04;11.90;11.00
77305;DHT22;66364;52.622;7.746;2023-02-28T10:09:11;12.20;10.50
77305;DHT22;66364;52.622;7.746;2023-02-28T10:11:15;12.20;11.70
77305;DHT22;66364;52.622;7.746;2023-02-28T10:15:31;11.60;10.70
77305;DHT22;66364;52.622;7.746;2023-02-28T10:17:37;11.50;11.10
77305;DHT22;66364;52.622;7.746;2023-02-28T10:22:03;12.30;11.20
77305;DHT22;66364;52.622;7.746;2023-02-28T10:26:27;12.70;10.10
77305;DHT22;66364;52.622;7.746;2023-02-28T10:28:32;13.00;10.40
77305;DHT22;66364;52.622;7.746;2023-02-28T10:30:32;13.00;9.70
77305;DHT22;66364;52.622;7.746;2023-02-28T10:32:34;11.70;9.70
77305;DHT22;66364;52.622;7.746;2023-02-28T10:34:36;11.50;10.90
77305;DHT22;66364;52.622;7.746;2023-02-28T10:36:36;11.70;11.80
77305;DHT22;66364;52.622;7.746;2023-02-28T10:38:38;12.10;11.60
77305;DHT22;66364;52.622;7.746;2023-02-28T10:40:39;12.60;10.00
77305;DHT22;66364;52.622;7.746;2023-02-28T10:42:40;12.80;9.70
77305;DHT22;66364;52.622;7.746;2023-02-28T10:44:41;12.80;10.20
77305;DHT22;66364;52.622;7.746;2023-02-28T10:46:49;12.80;11.40
77305;DHT22;66364;52.622;7.746;2023-02-28T10:49:17;12.60;10.70
77305;DHT22;66364;52.622;7.746;2023-02-28T10:51:18;12.60;9.80
77305;DHT22;66364;52.622;7.746;2023-02-28T10:55:26;12.10;10.70
77305;DHT22;66364;52.622;7.746;2023-02-28T10:57:30;11.90;11.80
77305;DHT22;66364;52.622;7.746;2023-02-28T10:59:31;11.50;11.10
77305;DHT22;66364;52.622;7.746;2023-02-28T11:03:36;12.20;10.70
77305;DHT22;66364;52.622;7.746;2023-02-28T11:05:36;12.40;10.90
77305;DHT22;66364;52.622;7.746;2023-02-28T11:07:37;11.70;9.40
77305;DHT22;66364;52.622;7.746;2023-02-28T11:09:39;11.10;12.50
77305;DHT22;66364;52.622;7.746;2023-02-28T11:11:45;11.50;12.40
77305;DHT22;66364;52.622;7.746;2023-02-28T11:13:50;11.50;10.40
77305;DHT22;66364;52.622;7.746;2023-02-28T11:15:54;11.60;10.80
77305;DHT22;66364;52.622;7.746;2023-02-28T11:17:59;11.10;11.50
77305;DHT22;66364;52.622;7.746;2023-02-28T11:20:05;11.20;12.50
77305;DHT22;66364;52.622;7.746;2023-02-28T11:22:07;11.00;13.60
77305;DHT22;66364;52.622;7.746;2023-02-28T11:24:30;11.50;11.30
77305;DHT22;66364;52.622;7.746;2023-02-28T11:26:40;11.90;10.30
77305;DHT22;66364;52.622;7.746;2023-02-28T11:28:42;11.90;9.10
77305;DHT22;66364;52.622;7.746;2023-02-28T11:30:42;11.40;9.00
77305;DHT22;66364;52.622;7.746;2023-02-28T11:32:48;10.70;9.40
77305;DHT22;66364;52.622;7.746;2023-02-28T11:37:18;10.90;10.90
77305;DHT22;66364;52.622;7.746;2023-02-28T11:39:16;11.40;10.80
77305;DHT22;66364;52.622;7.746;2023-02-28T11:41:53;11.90;10.50
77305;DHT22;66364;52.622;7.746;2023-02-28T11:43:56;12.30;10.40
77305;DHT22;66364;52.622;7.746;2023-02-28T11:48:27;12.60;8.40
77305;DHT22;66364;52.622;7.746;2023-02-28T11:50:51;12.70;7.70
77305;DHT22;66364;52.622;7.746;2023-02-28T11:53:04;13.10;8.80
77305;DHT22;66364;52.622;7.746;2023-02-28T11:55:08;13.50;7.40
77305;DHT22;66364;52.622;7.746;2023-02-28T12:06:57;15.20;7.10
77305;DHT22;66364;52.622;7.746;2023-02-28T12:09:18;15.30;6.60
77305;DHT22;66364;52.622;7.746;2023-02-28T12:11:51;15.50;5.60
77305;DHT22;66364;52.622;7.746;2023-02-28T12:28:02;14.20;5.50
77305;DHT22;66364;52.622;7.746;2023-02-28T12:30:27;14.90;4.00
77305;DHT22;66364;52.622;7.746;2023-02-28T12:32:35;15.00;3.90
77305;DHT22;66364;52.622;7.746;2023-02-28T12:34:42;14.40;4.00
77305;DHT22;66364;52.622;7.746;2023-02-28T12:36:43;14.30;4.60
77305;DHT22;66364;52.622;7.746;2023-02-28T12:38:56;14.70;5.50
77305;DHT22;66364;52.622;7.746;2023-02-28T12:41:12;15.00;4.60
77305;DHT22;66364;52.622;7.746;2023-02-28T12:43:13;15.70;4.70
77305;DHT22;66364;52.622;7.746;2023-02-28T12:45:20;16.10;4.30
77305;DHT22;66364;52.622;7.746;2023-02-28T12:47:22;16.10;2.10
77305;DHT22;66364;52.622;7.746;2023-02-28T12:49:28;15.50;2.90
77305;DHT22;66364;52.622;7.746;2023-02-28T12:51:36;15.50;3.00
77305;DHT22;66364;52.622;7.746;2023-02-28T13:03:47;15.50;3.90
77305;DHT22;66364;52.622;7.746;2023-02-28T13:10:48;15.30;2.90
77305;DHT22;66364;52.622;7.746;2023-02-28T13:12:51;14.50;4.10
77305;DHT22;66364;52.622;7.746;2023-02-28T13:15:13;14.00;3.90
77305;DHT22;66364;52.622;7.746;2023-02-28T13:19:11;14.60;5.20
77305;DHT22;66364;52.622;7.746;2023-02-28T13:21:29;14.40;6.70
77305;DHT22;66364;52.622;7.746;2023-02-28T13:25:55;13.80;3.60
77305;DHT22;66364;52.622;7.746;2023-02-28T13:27:56;13.50;4.00
77305;DHT22;66364;52.622;7.746;2023-02-28T13:32:31;13.40;4.10
77305;DHT22;66364;52.622;7.746;2023-02-28T13:41:41;12.90;5.70
77305;DHT22;66364;52.622;7.746;2023-02-28T13:44:05;13.10;5.10
77305;DHT22;66364;52.622;7.746;2023-02-28T13:46:10;13.30;4.80
77305;DHT22;66364;52.622;7.746;2023-02-28T13:48:23;13.40;5.40
77305;DHT22;66364;52.622;7.746;2023-02-28T13:50:36;13.40;5.60
77305;DHT22;66364;52.622;7.746;2023-02-28T13:52:47;13.00;6.10
77305;DHT22;66364;52.622;7.746;2023-02-28T14:02:21;13.70;3.40
77305;DHT22;66364;52.622;7.746;2023-02-28T14:06:49;14.00;5.00
77305;DHT22;66364;52.622;7.746;2023-02-28T14:08:57;14.10;5.90
77305;DHT22;66364;52.622;7.746;2023-02-28T14:11:08;13.90;5.60
77305;DHT22;66364;52.622;7.746;2023-02-28T14:15:41;15.20;4.70
77305;DHT22;66364;52.622;7.746;2023-02-28T14:17:43;15.40;3.20
77305;DHT22;66364;52.622;7.746;2023-02-28T14:19:47;15.90;3.60
77305;DHT22;66364;52.622;7.746;2023-02-28T14:31:29;14.90;4.90
77305;DHT22;66364;52.622;7.746;2023-02-28T14:38:07;15.80;3.50
77305;DHT22;66364;52.622;7.746;2023-02-28T14:40:30;16.00;2.50
77305;DHT22;66364;52.622;7.746;2023-02-28T14:42:35;15.50;2.20
77305;DHT22;66364;52.622;7.746;2023-02-28T14:44:38;15.80;2.80
77305;DHT22;66364;52.622;7.746;2023-02-28T14:46:41;15.60;2.70
77305;DHT22;66364;52.622;7.746;2023-02-28T14:48:50;16.00;3.20
77305;DHT22;66364;52.622;7.746;2023-02-28T14:50:54;16.20;3.10
77305;DHT22;66364;52.622;7.746;2023-02-28T14:52:55;15.60;2.90
77305;DHT22;66364;52.622;7.746;2023-02-28T14:54:59;15.20;2.30
77305;DHT22;66364;52.622;7.746;2023-02-28T14:57:00;15.10;2.90
77305;DHT22;66364;52.622;7.746;2023-02-28T14:59:01;15.40;2.20
77305;DHT22;66364;52.622;7.746;2023-02-28T15:01:03;15.10;2.60
77305;DHT22;66364;52.622;7.746;2023-02-28T15:03:31;15.00;2.20
77305;DHT22;66364;52.622;7.746;2023-02-28T15:05:30;14.90;3.80
77305;DHT22;66364;52.622;7.746;2023-02-28T15:07:31;15.50;3.10
77305;DHT22;66364;52.622;7.746;2023-02-28T15:09:31;15.40;3.00
77305;DHT22;66364;52.622;7.746;2023-02-28T15:11:36;15.10;3.30
77305;DHT22;66364;52.622;7.746;2023-02-28T15:13:42;15.20;3.60
77305;DHT22;66364;52.622;7.746;2023-02-28T15:18:04;15.30;3.10
77305;DHT22;66364;52.622;7.746;2023-02-28T15:20:11;15.50;3.30
77305;DHT22;66364;52.622;7.746;2023-02-28T15:22:16;15.30;3.80
77305;DHT22;66364;52.622;7.746;2023-02-28T15:24:27;14.70;5.30
77305;DHT22;66364;52.622;7.746;2023-02-28T15:26:28;14.60;5.20
77305;DHT22;66364;52.622;7.746;2023-02-28T15:28:29;14.50;5.30
77305;DHT22;66364;52.622;7.746;2023-02-28T15:30:31;15.00;4.70
77305;DHT22;66364;52.622;7.746;2023-02-28T15:32:34;14.70;5.50
77305;DHT22;66364;52.622;7.746;2023-02-28T15:34:42;15.00;4.60
77305;DHT22;66364;52.622;7.746;2023-02-28T15:36:43;15.00;4.60
77305;DHT22;66364;52.622;7.746;2023-02-28T15:38:44;14.70;4.40
77305;DHT22;66364;52.622;7.746;2023-02-28T15:40:50;14.50;4.10
77305;DHT22;66364;52.622;7.746;2023-02-28T15:43:17;14.70;4.00
77305;DHT22;66364;52.622;7.746;2023-02-28T15:47:45;14.50;4.50
77305;DHT22;66364;52.622;7.746;2023-02-28T15:51:56;14.00;4.80
77305;DHT22;66364;52.622;7.746;2023-02-28T15:54:01;14.40;4.70
77305;DHT22;66364;52.622;7.746;2023-02-28T15:56:05;14.10;5.20